Home PIREPS Pireps

Flight BEL1036

  • Submitted By: Jacques Stielle
  • Departure Airport: Kaohsiung Intl (RCKH)
  • Arrival Airport: New Tokyo Inter-National Airport (RJAA)
  • Aircraft: A319-111 (OO-SSW)
  • Flight Time: 03.26
  • Date Submitted: 07/10/2017
  • Route: TULTO IGURU SHIMO KAITO WARDO TONAR WEBER MAYON SOPHY SAKAK SAKIT O
  • Status: Accepted
Flight Details
Gross Revenue:
(205 load / € 0.00 per unit
€ 0.00
Fuel Cost:
(11008 fuel used @ 0 / unit)
€ 0.00

Additional Log Information:

View Log

Aircraft Used in flight is PMDG 737-800NGX PMDG House Winglets
15:17 Brakes are On
15:18 Brakes are Released
15:20 You Took off @ 159 Knots and Flaps at Position 4
Departure Weather
RCKH 071300Z 27006KT 7000 FEW015 SCT045 BKN120 29/25 Q1011 NOSIG RMK A2988rn
15:20 Landing Gear Up @ 171 Knots and 470 Feet
15:23 Below 10000 feet you are not allowed to go over 250 knots
15:24 Below Fl100 you need to turn on the landing lights
15:24 Below FL100 you need to turn on the landing lights
16:40 Overspeed
16:40 Recovered from Overspeed
17:18 Paused
17:19 Unpaused
17:54 Paused
17:54 Unpaused
17:58 Paused
17:58 Unpaused
18:01 Paused
18:01 Unpaused
18:04 Paused
18:04 Unpaused
18:09 Paused
18:09 Unpaused
18:14 Paused
18:14 Unpaused
18:19 Paused
18:19 Unpaused
18:28 Landing Gear Down @ 202 Knots and 2980 Feet
18:32 You Landed @ 144 Knots and with -300 Vertical Speed
Arrival Weather
RJAA 071600Z 34003KT 6000 MIFG BR FEW010 BKN090 18/18 Q1020 TEMPO 4000 BRrn
18:35 Paused
18:35 Unpaused
18:35 Paused
18:36 Brussels Bel-Track1.0.1.2

Route Map

Corporate About Us Our Team Vacancies Information Fleet Route Network Rules and Regulations Operations Flight Schedules Event Center Tours Partners IVAO Vatsim Acars dev FSCB

fb Users Online No pilots online!
0 Pilot(s) and 142 Guest(s) Online
CMS by phpVMS - Design by Crazycreatives.com - Copyright © 2018 - Brussels Airlines Virtual